Time;durP1;ratioP1;P1;durP2;ratioP2;P2;SDS_P1;SDS_P2;PMS_P1;PMS_P2;Temp;Humidity;BMP_temperature;BMP_pressure;BME280_temperature;BME280_humidity;BME280_pressure;Samples;Min_cycle;Max_cycle;Signal;HPM_P1;HPM_P2
2021/01/31 00:08:33;;;;;;;;;;;6.20;99.90;;;;;;20809875;28;20292;-76
2021/01/31 00:18:34;;;;;;;42.40;18.47;;;6.00;99.90;;;;;;20806650;28;20391;-77
2021/01/31 00:28:35;;;;;;;50.53;20.35;;;6.00;99.90;;;;;;20808013;28;20350;-76
2021/01/31 00:38:36;;;;;;;40.70;18.13;;;6.00;99.90;;;;;;20804207;28;20045;-77
2021/01/31 00:48:37;;;;;;;40.10;17.27;;;6.20;99.90;;;;;;20821238;28;20061;-77
2021/01/31 00:58:38;;;;;;;35.33;16.33;;;6.10;99.90;;;;;;20824521;28;20025;-77
2021/01/31 01:08:39;;;;;;;119.50;18.53;;;5.90;99.90;;;;;;20823993;28;20388;-78
2021/01/31 01:18:40;;;;;;;40.87;15.83;;;5.70;99.90;;;;;;20781687;28;20041;-77
2021/01/31 01:28:40;;;;;;;65.93;17.53;;;6.00;99.90;;;;;;20743672;28;20037;-77
2021/01/31 01:38:42;;;;;;;41.27;15.17;;;5.90;99.90;;;;;;20742183;28;20030;-77
2021/01/31 01:48:44;;;;;;;29.60;12.07;;;5.90;99.90;;;;;;20741900;28;20022;-78
2021/01/31 01:58:45;;;;;;;36.28;12.68;;;5.70;99.90;;;;;;20742755;28;20034;-77
2021/01/31 02:08:46;;;;;;;;;;;5.70;99.90;;;;;;20756034;28;20636;-77
2021/01/31 02:18:55;;;;;;;36.80;12.18;;;5.70;99.90;;;;;;20755318;28;19913;-77
2021/01/31 02:29:12;;;;;;;46.95;13.50;;;5.60;99.90;;;;;;20754866;28;20497;-77
2021/01/31 02:39:22;;;;;;;41.10;12.05;;;5.60;99.90;;;;;;20754000;28;20029;-77
2021/01/31 02:50:22;;;;;;;28.20;10.00;;;5.60;99.90;;;;;;20753354;28;20373;-77
2021/01/31 03:00:48;;;;;;;31.15;9.82;;;5.60;99.90;;;;;;20709937;28;20037;-77
2021/01/31 03:11:02;;;;;;;18.95;6.32;;;5.70;99.90;;;;;;20731202;28;20650;-78
2021/01/31 03:21:23;;;;;;;19.08;6.50;;;5.70;99.90;;;;;;20724543;28;20038;-76
2021/01/31 03:31:28;;;;;;;18.85;6.43;;;5.60;99.90;;;;;;20755336;28;20038;-77
2021/01/31 03:41:30;;;;;;;13.02;5.25;;;5.30;99.90;;;;;;20749293;28;20029;-77
2021/01/31 03:51:32;;;;;;;10.50;4.65;;;5.40;99.90;;;;;;20748387;28;20030;-77
2021/01/31 04:01:37;;;;;;;13.13;3.70;;;5.50;99.90;;;;;;20747968;28;20058;-76
2021/01/31 04:11:41;;;;;;;15.60;3.55;;;5.50;99.90;;;;;;20746801;28;20034;-76
2021/01/31 04:21:42;;;;;;;6.68;3.50;;;5.50;99.90;;;;;;20746160;28;20030;-76
2021/01/31 04:31:43;;;;;;;12.83;3.67;;;5.40;99.90;;;;;;20745371;28;20029;-77
2021/01/31 04:41:44;;;;;;;15.93;4.47;;;5.30;99.90;;;;;;20751863;28;20021;-77
2021/01/31 04:52:14;;;;;;;12.07;2.90;;;5.20;99.90;;;;;;20825988;28;20082;-77
2021/01/31 05:02:39;;;;;;;21.95;5.60;;;5.20;99.90;;;;;;20814590;28;20029;-77
2021/01/31 05:12:48;;;;;;;18.65;4.55;;;5.30;99.90;;;;;;20825649;28;20500;-77
2021/01/31 05:22:53;;;;;;;10.30;3.85;;;5.30;99.90;;;;;;20824258;28;20072;-77
2021/01/31 05:33:03;;;;;;;15.77;3.90;;;5.20;99.90;;;;;;20830006;28;20547;-78
2021/01/31 05:43:06;;;;;;;22.08;4.70;;;5.20;99.90;;;;;;20843068;28;20029;-77
2021/01/31 05:53:28;;;;;;;19.48;4.93;;;5.30;99.90;;;;;;20843930;28;20033;-79
2021/01/31 06:03:29;;;;;;;12.32;4.88;;;5.30;99.90;;;;;;20840559;28;20057;-78
2021/01/31 06:13:32;;;;;;;10.47;4.83;;;5.30;99.90;;;;;;20839947;28;20045;-78
2021/01/31 06:23:44;;;;;;;9.88;2.90;;;5.40;99.90;;;;;;20839403;28;20595;-79
2021/01/31 06:33:45;;;;;;;7.72;4.20;;;5.30;99.90;;;;;;20845399;28;20104;-79
2021/01/31 06:44:09;;;;;;;7.90;2.58;;;5.40;99.90;;;;;;20839380;28;20061;-79
2021/01/31 06:54:48;;;;;;;15.02;3.67;;;5.30;99.90;;;;;;20838038;28;20168;-78
2021/01/31 07:05:05;;;;;;;16.83;3.78;;;5.30;99.90;;;;;;20836550;28;20128;-79
2021/01/31 07:15:17;;;;;;;5.75;2.47;;;5.30;99.90;;;;;;20857308;28;20041;-78
2021/01/31 07:25:24;;;;;;;11.90;4.07;;;5.30;99.90;;;;;;20860231;28;20034;-79
2021/01/31 07:35:32;;;;;;;5.63;2.47;;;5.30;99.90;;;;;;20841843;28;20025;-79
2021/01/31 07:45:33;;;;;;;5.38;2.65;;;5.40;99.90;;;;;;20852832;28;20037;-79
2021/01/31 07:55:43;;;;;;;21.33;10.70;;;5.40;99.90;;;;;;20852002;28;20483;-79
2021/01/31 08:06:10;;;;;;;14.30;6.43;;;5.50;99.90;;;;;;20849938;28;20488;-80
2021/01/31 08:16:48;;;;;;;6.10;3.55;;;5.60;99.90;;;;;;20833434;28;20049;-77
2021/01/31 08:26:49;;;;;;;104.63;8.25;;;5.60;99.90;;;;;;20825530;28;20442;-77
2021/01/31 08:36:50;;;;;;;28.37;5.27;;;5.40;99.90;;;;;;20828874;28;20033;-77
2021/01/31 08:47:00;;;;;;;3.95;2.78;;;5.20;99.90;;;;;;20828194;28;20033;-77
2021/01/31 08:57:11;;;;;;;7.60;4.20;;;5.00;99.90;;;;;;20827534;28;20079;-78
2021/01/31 09:07:23;;;;;;;9.03;4.57;;;4.90;99.90;;;;;;20822539;28;20022;-76
2021/01/31 09:17:26;;;;;;;4.72;2.63;;;4.90;99.90;;;;;;20852517;28;20036;-78
2021/01/31 09:27:27;;;;;;;4.82;2.80;;;4.90;99.90;;;;;;20857733;28;20021;-77
2021/01/31 09:37:31;;;;;;;10.65;3.47;;;4.80;99.90;;;;;;20867335;28;20116;-78
2021/01/31 09:47:32;;;;;;;8.32;4.13;;;4.70;99.90;;;;;;20826028;28;20112;-78
2021/01/31 09:57:33;;;;;;;8.73;4.53;;;4.60;99.90;;;;;;20834917;28;20112;-77
2021/01/31 10:07:35;;;;;;;11.33;4.97;;;4.70;99.90;;;;;;20835101;28;20052;-77
2021/01/31 10:17:45;;;;;;;9.73;5.03;;;4.50;99.90;;;;;;20819738;28;20065;-78
2021/01/31 10:27:48;;;;;;;12.80;6.10;;;4.50;99.90;;;;;;20829028;28;20295;-76
2021/01/31 10:37:50;;;;;;;14.95;8.02;;;4.60;99.90;;;;;;20818578;28;20045;-77
2021/01/31 10:47:51;;;;;;;15.68;7.80;;;4.50;99.90;;;;;;20797201;28;20575;-76
2021/01/31 10:57:52;;;;;;;19.53;8.00;;;4.60;99.90;;;;;;20811325;28;20051;-76
2021/01/31 11:07:53;;;;;;;19.73;8.33;;;4.50;99.90;;;;;;20811910;28;20026;-77
2021/01/31 11:17:54;;;;;;;18.33;8.70;;;4.50;99.90;;;;;;20788681;28;20044;-76
2021/01/31 11:27:55;;;;;;;19.67;8.77;;;4.80;99.90;;;;;;20817737;28;20720;-76
2021/01/31 11:37:57;;;;;;;26.33;9.90;;;4.90;99.90;;;;;;20812995;28;20276;-78
2021/01/31 11:47:57;;;;;;;;;;;5.20;99.90;;;;;;20820637;28;20473;-77
2021/01/31 11:57:58;;;;;;;22.13;11.82;;;5.50;99.90;;;;;;20818666;28;19913;-77
2021/01/31 12:07:59;;;;;;;9.57;6.00;;;6.50;99.90;;;;;;20815401;28;20111;-77
2021/01/31 12:18:00;;;;;;;12.10;6.80;;;6.80;99.90;;;;;;20789396;28;20039;-78
2021/01/31 12:28:01;;;;;;;9.90;5.50;;;6.90;99.90;;;;;;20799150;28;20488;-78
2021/01/31 12:38:04;;;;;;;16.83;5.88;;;7.30;99.90;;;;;;20831546;28;20076;-78
2021/01/31 12:48:05;;;;;;;8.75;4.07;;;7.50;99.90;;;;;;20814451;28;20021;-78
2021/01/31 12:58:06;;;;;;;9.17;3.87;;;7.50;99.90;;;;;;20816476;28;20033;-79
2021/01/31 13:08:09;;;;;;;3.80;2.53;;;7.80;99.90;;;;;;20827651;28;20076;-78
2021/01/31 13:18:10;;;;;;;5.82;3.03;;;8.30;99.90;;;;;;20820031;28;20584;-79
2021/01/31 13:28:10;;;;;;;1.97;1.50;;;8.40;99.90;;;;;;20816354;28;20034;-79
2021/01/31 13:38:12;;;;;;;2.33;1.60;;;8.20;99.90;;;;;;20795854;28;20029;-79
2021/01/31 13:48:13;;;;;;;2.97;1.95;;;8.10;99.90;;;;;;20774670;28;20029;-78
2021/01/31 13:58:14;;;;;;;5.07;3.27;;;7.70;99.90;;;;;;20793556;28;20041;-79
2021/01/31 14:08:15;;;;;;;8.00;3.97;;;7.70;99.90;;;;;;20775445;28;20068;-80
2021/01/31 14:18:16;;;;;;;5.43;3.20;;;7.50;99.90;;;;;;20810395;28;20038;-78
2021/01/31 14:28:17;;;;;;;5.93;3.10;;;7.40;99.90;;;;;;20837431;28;20040;-79
2021/01/31 14:38:18;;;;;;;7.50;3.03;;;7.20;99.90;;;;;;20821839;28;20037;-79
2021/01/31 14:48:19;;;;;;;5.83;3.57;;;6.80;99.90;;;;;;20827714;28;20513;-79
2021/01/31 14:58:20;;;;;;;6.70;3.20;;;6.80;99.90;;;;;;20765632;28;20056;-80
2021/01/31 15:08:21;;;;;;;4.93;2.83;;;6.90;99.90;;;;;;20833513;28;20455;-80
2021/01/31 15:18:22;;;;;;;7.43;3.40;;;7.00;99.90;;;;;;20833253;28;20041;-80
2021/01/31 15:28:23;;;;;;;6.97;3.53;;;7.00;99.90;;;;;;20828072;28;20473;-80
2021/01/31 15:38:24;;;;;;;9.87;4.33;;;7.10;99.90;;;;;;20829620;28;20559;-78
2021/01/31 15:48:26;;;;;;;8.37;3.47;;;7.10;99.90;;;;;;20829829;28;20041;-79
2021/01/31 15:58:27;;;;;;;8.48;4.55;;;7.00;99.90;;;;;;20822110;28;20515;-77
2021/01/31 16:08:28;;;;;;;6.30;4.23;;;7.10;99.90;;;;;;20816810;28;20041;-78
2021/01/31 16:18:29;;;;;;;8.27;4.07;;;6.80;99.90;;;;;;20823473;28;20120;-79
2021/01/31 16:28:30;;;;;;;8.67;4.63;;;6.50;99.90;;;;;;20828579;28;20033;-78
2021/01/31 16:38:31;;;;;;;13.38;6.85;;;6.40;99.90;;;;;;20829845;28;20037;-78
2021/01/31 16:48:32;;;;;;;19.80;9.73;;;6.10;99.90;;;;;;20823901;28;20488;-78
2021/01/31 16:58:33;;;;;;;16.13;8.80;;;6.10;99.90;;;;;;20822290;28;20069;-79
2021/01/31 17:08:34;;;;;;;19.60;9.63;;;6.20;99.90;;;;;;20825660;28;20104;-80
2021/01/31 17:18:38;;;;;;;14.77;8.45;;;6.20;99.90;;;;;;20812617;28;20037;-79
2021/01/31 17:28:39;;;;;;;14.05;7.65;;;6.30;99.90;;;;;;20758221;28;20157;-77
2021/01/31 17:38:40;;;;;;;22.57;10.53;;;7.50;99.90;;;;;;20742350;28;20026;-77
2021/01/31 17:48:42;;;;;;;16.27;8.07;;;7.20;99.90;;;;;;20740268;28;20279;-79
2021/01/31 17:58:45;;;;;;;10.03;4.90;;;6.80;99.90;;;;;;20738778;28;20048;-79
2021/01/31 18:08:45;;;;;;;14.65;8.77;;;6.40;99.90;;;;;;20738280;28;20652;-78
2021/01/31 18:18:46;;;;;;;17.67;10.47;;;6.30;99.90;;;;;;20737241;28;20119;-77
2021/01/31 18:28:48;;;;;;;6.63;4.38;;;6.40;99.90;;;;;;20823993;28;20109;-76
2021/01/31 18:38:49;;;;;;;8.60;4.97;;;6.20;99.90;;;;;;20817332;28;20045;-76
2021/01/31 18:48:50;;;;;;;10.45;5.95;;;6.00;99.90;;;;;;20817379;28;20519;-77
2021/01/31 18:58:51;;;;;;;9.07;4.60;;;6.10;99.90;;;;;;20830354;28;20022;-78
2021/01/31 19:08:51;;;;;;;5.37;3.60;;;6.00;99.90;;;;;;20828545;28;20022;-79
2021/01/31 19:18:53;;;;;;;8.27;5.23;;;6.00;99.90;;;;;;20832033;28;20033;-77
2021/01/31 19:28:54;;;;;;;9.73;5.00;;;5.80;99.90;;;;;;20832125;28;20345;-78
2021/01/31 19:38:54;;;;;;;14.87;5.70;;;5.80;99.90;;;;;;20829886;28;20040;-79
2021/01/31 19:48:58;;;;;;;18.77;10.00;;;5.70;99.90;;;;;;20822330;28;20551;-76
2021/01/31 19:58:59;;;;;;;10.95;7.05;;;5.80;99.90;;;;;;20747221;28;20101;-77
2021/01/31 20:09:00;;;;;;;17.73;10.10;;;5.70;99.90;;;;;;20781654;28;20091;-79
2021/01/31 20:19:02;;;;;;;20.90;11.23;;;5.70;99.90;;;;;;20829321;28;20684;-76
2021/01/31 20:29:03;;;;;;;16.13;8.80;;;5.70;99.90;;;;;;20822773;28;20087;-79
2021/01/31 20:39:05;;;;;;;18.85;10.35;;;5.50;99.90;;;;;;20828999;28;20044;-75
2021/01/31 20:49:07;;;;;;;14.82;8.40;;;5.50;99.90;;;;;;20825016;28;20037;-77
2021/01/31 20:59:08;;;;;;;24.48;12.88;;;5.40;99.90;;;;;;20828783;28;20033;-79
2021/01/31 21:09:09;;;;;;;26.43;13.87;;;5.50;99.90;;;;;;20828105;28;20521;-79
2021/01/31 21:19:10;;;;;;;29.63;14.33;;;5.40;99.90;;;;;;20824129;28;20029;-79
2021/01/31 21:29:10;;;;;;;48.30;18.20;;;5.40;99.90;;;;;;20825954;28;20068;-77
2021/01/31 21:39:11;;;;;;;46.43;20.43;;;5.40;99.90;;;;;;20825785;28;20040;-78
2021/01/31 21:49:13;;;;;;;45.33;19.60;;;5.40;99.90;;;;;;20807229;28;20036;-76
2021/01/31 21:59:14;;;;;;;54.33;21.48;;;5.40;99.90;;;;;;20810418;28;20485;-77
2021/01/31 22:09:14;;;;;;;54.13;22.07;;;5.30;99.90;;;;;;20811196;28;20073;-76
2021/01/31 22:19:15;;;;;;;50.53;19.30;;;5.30;99.90;;;;;;20809396;28;20152;-77
2021/01/31 22:29:16;;;;;;;51.60;22.77;;;5.20;99.90;;;;;;20814286;28;20045;-77
2021/01/31 22:39:17;;;;;;;59.63;21.63;;;5.30;99.90;;;;;;20849535;28;20033;-77
2021/01/31 22:49:18;;;;;;;72.47;25.47;;;5.20;99.90;;;;;;20842029;28;20295;-77
2021/01/31 22:59:19;;;;;;;70.43;24.47;;;5.20;99.90;;;;;;20846867;28;20051;-78
2021/01/31 23:09:20;;;;;;;70.70;25.00;;;5.30;99.90;;;;;;20843789;28;20769;-78
2021/01/31 23:19:21;;;;;;;66.03;24.57;;;5.30;99.90;;;;;;20845409;28;20108;-78
2021/01/31 23:29:22;;;;;;;66.77;24.90;;;5.20;99.90;;;;;;20842194;28;20056;-78
2021/01/31 23:39:22;;;;;;;58.80;22.50;;;5.20;99.90;;;;;;20842420;28;20113;-78
2021/01/31 23:49:23;;;;;;;64.07;24.07;;;5.30;99.90;;;;;;20836708;28;20025;-78
2021/01/31 23:59:24;;;;;;;65.97;24.03;;;5.20;99.90;;;;;;20765941;28;20470;-78
